sensor_id;sensor_type;location;lat;lon;timestamp;temperature;humidity
18189;DHT22;9219;50.396;8.546;2023-06-26T00:02:19;26.10;99.90
18189;DHT22;9219;50.396;8.546;2023-06-26T00:04:46;26.20;99.90
18189;DHT22;9219;50.396;8.546;2023-06-26T00:09:54;26.00;99.90
18189;DHT22;9219;50.396;8.546;2023-06-26T00:12:21;26.00;99.90
18189;DHT22;9219;50.396;8.546;2023-06-26T00:14:48;26.00;99.90
18189;DHT22;9219;50.396;8.546;2023-06-26T00:17:15;25.90;99.90
18189;DHT22;9219;50.396;8.546;2023-06-26T00:19:43;25.70;99.90
18189;DHT22;9219;50.396;8.546;2023-06-26T00:22:10;25.70;99.90
18189;DHT22;9219;50.396;8.546;2023-06-26T00:24:37;25.60;99.90
18189;DHT22;9219;50.396;8.546;2023-06-26T00:27:06;25.60;99.90
18189;DHT22;9219;50.396;8.546;2023-06-26T00:34:38;25.60;99.90
18189;DHT22;9219;50.396;8.546;2023-06-26T00:37:05;25.60;99.90
18189;DHT22;9219;50.396;8.546;2023-06-26T00:39:32;25.50;99.90
18189;DHT22;9219;50.396;8.546;2023-06-26T00:42:00;25.60;99.90
18189;DHT22;9219;50.396;8.546;2023-06-26T00:44:27;25.60;99.90
18189;DHT22;9219;50.396;8.546;2023-06-26T00:46:55;25.60;99.90
18189;DHT22;9219;50.396;8.546;2023-06-26T00:49:23;25.60;99.90
18189;DHT22;9219;50.396;8.546;2023-06-26T00:51:53;25.50;99.90
18189;DHT22;9219;50.396;8.546;2023-06-26T00:59:39;25.40;99.90
18189;DHT22;9219;50.396;8.546;2023-06-26T01:02:07;25.30;99.90
18189;DHT22;9219;50.396;8.546;2023-06-26T01:04:36;25.30;99.90
18189;DHT22;9219;50.396;8.546;2023-06-26T01:07:04;25.30;99.90
18189;DHT22;9219;50.396;8.546;2023-06-26T01:09:34;25.30;99.90
18189;DHT22;9219;50.396;8.546;2023-06-26T01:12:02;25.10;99.90
18189;DHT22;9219;50.396;8.546;2023-06-26T01:14:29;25.20;99.90
18189;DHT22;9219;50.396;8.546;2023-06-26T01:17:01;25.20;99.90
18189;DHT22;9219;50.396;8.546;2023-06-26T01:25:01;25.30;99.90
18189;DHT22;9219;50.396;8.546;2023-06-26T01:27:31;25.30;99.90
18189;DHT22;9219;50.396;8.546;2023-06-26T01:30:01;25.30;99.90
18189;DHT22;9219;50.396;8.546;2023-06-26T01:32:29;25.30;99.90
18189;DHT22;9219;50.396;8.546;2023-06-26T01:34:58;25.40;99.90
18189;DHT22;9219;50.396;8.546;2023-06-26T01:37:26;25.30;99.90
18189;DHT22;9219;50.396;8.546;2023-06-26T01:39:53;25.40;99.90
18189;DHT22;9219;50.396;8.546;2023-06-26T01:48:13;25.30;99.90
18189;DHT22;9219;50.396;8.546;2023-06-26T01:50:44;25.30;99.90
18189;DHT22;9219;50.396;8.546;2023-06-26T01:53:15;25.30;99.90
18189;DHT22;9219;50.396;8.546;2023-06-26T01:55:47;25.10;99.90
18189;DHT22;9219;50.396;8.546;2023-06-26T01:58:17;25.30;99.90
18189;DHT22;9219;50.396;8.546;2023-06-26T02:00:47;25.10;99.90
18189;DHT22;9219;50.396;8.546;2023-06-26T02:03:16;25.10;99.90
18189;DHT22;9219;50.396;8.546;2023-06-26T02:13:40;25.20;99.90
18189;DHT22;9219;50.396;8.546;2023-06-26T02:16:07;25.30;99.90
18189;DHT22;9219;50.396;8.546;2023-06-26T02:18:35;25.30;99.90
18189;DHT22;9219;50.396;8.546;2023-06-26T02:21:03;25.30;99.90
18189;DHT22;9219;50.396;8.546;2023-06-26T02:23:32;25.30;99.90
18189;DHT22;9219;50.396;8.546;2023-06-26T02:25:59;25.30;99.90
18189;DHT22;9219;50.396;8.546;2023-06-26T02:28:27;25.40;99.90
18189;DHT22;9219;50.396;8.546;2023-06-26T02:30:55;25.40;99.90
18189;DHT22;9219;50.396;8.546;2023-06-26T02:38:38;25.30;99.90
18189;DHT22;9219;50.396;8.546;2023-06-26T02:41:05;25.30;99.90
18189;DHT22;9219;50.396;8.546;2023-06-26T02:43:32;25.30;99.90
18189;DHT22;9219;50.396;8.546;2023-06-26T02:45:59;25.20;99.90
18189;DHT22;9219;50.396;8.546;2023-06-26T02:48:27;25.10;99.90
18189;DHT22;9219;50.396;8.546;2023-06-26T02:50:54;25.10;99.90
18189;DHT22;9219;50.396;8.546;2023-06-26T02:53:21;25.10;99.90
18189;DHT22;9219;50.396;8.546;2023-06-26T02:55:50;25.10;99.90
18189;DHT22;9219;50.396;8.546;2023-06-26T03:03:22;25.00;99.90
18189;DHT22;9219;50.396;8.546;2023-06-26T03:05:49;25.10;99.90
18189;DHT22;9219;50.396;8.546;2023-06-26T03:08:17;25.00;99.90
18189;DHT22;9219;50.396;8.546;2023-06-26T03:10:44;25.20;99.90
18189;DHT22;9219;50.396;8.546;2023-06-26T03:13:11;25.20;99.90
18189;DHT22;9219;50.396;8.546;2023-06-26T03:15:39;25.20;99.90
18189;DHT22;9219;50.396;8.546;2023-06-26T03:18:06;25.10;99.90
18189;DHT22;9219;50.396;8.546;2023-06-26T03:20:35;25.10;99.90
18189;DHT22;9219;50.396;8.546;2023-06-26T03:28:08;25.00;99.90
18189;DHT22;9219;50.396;8.546;2023-06-26T03:30:35;24.90;99.90
18189;DHT22;9219;50.396;8.546;2023-06-26T03:33:07;25.10;99.90
18189;DHT22;9219;50.396;8.546;2023-06-26T03:35:34;25.10;99.90
18189;DHT22;9219;50.396;8.546;2023-06-26T03:38:01;25.10;99.90
18189;DHT22;9219;50.396;8.546;2023-06-26T03:40:29;25.10;99.90
18189;DHT22;9219;50.396;8.546;2023-06-26T03:42:56;25.10;99.90
18189;DHT22;9219;50.396;8.546;2023-06-26T03:45:24;25.00;99.90
18189;DHT22;9219;50.396;8.546;2023-06-26T03:52:55;24.90;99.90
18189;DHT22;9219;50.396;8.546;2023-06-26T03:55:22;24.70;99.90
18189;DHT22;9219;50.396;8.546;2023-06-26T03:57:50;24.50;99.90
18189;DHT22;9219;50.396;8.546;2023-06-26T04:00:17;24.60;99.90
18189;DHT22;9219;50.396;8.546;2023-06-26T04:02:44;24.70;99.90
18189;DHT22;9219;50.396;8.546;2023-06-26T04:05:12;24.70;99.90
18189;DHT22;9219;50.396;8.546;2023-06-26T04:07:39;24.80;99.90
18189;DHT22;9219;50.396;8.546;2023-06-26T04:10:09;24.80;99.90
18189;DHT22;9219;50.396;8.546;2023-06-26T04:17:41;25.00;99.90
18189;DHT22;9219;50.396;8.546;2023-06-26T04:20:09;24.90;99.90
18189;DHT22;9219;50.396;8.546;2023-06-26T04:22:36;24.90;99.90
18189;DHT22;9219;50.396;8.546;2023-06-26T04:25:04;24.70;99.90
18189;DHT22;9219;50.396;8.546;2023-06-26T04:27:31;24.60;99.90
18189;DHT22;9219;50.396;8.546;2023-06-26T04:30:02;24.50;99.90
18189;DHT22;9219;50.396;8.546;2023-06-26T04:32:29;24.50;99.90
18189;DHT22;9219;50.396;8.546;2023-06-26T04:37:38;24.40;99.90
18189;DHT22;9219;50.396;8.546;2023-06-26T04:40:07;24.70;99.90
18189;DHT22;9219;50.396;8.546;2023-06-26T04:42:35;24.70;99.90
18189;DHT22;9219;50.396;8.546;2023-06-26T04:45:03;24.90;99.90
18189;DHT22;9219;50.396;8.546;2023-06-26T04:47:31;24.80;99.90
18189;DHT22;9219;50.396;8.546;2023-06-26T04:49:58;24.70;99.90
18189;DHT22;9219;50.396;8.546;2023-06-26T04:52:25;24.70;99.90
18189;DHT22;9219;50.396;8.546;2023-06-26T04:54:54;24.60;99.90
18189;DHT22;9219;50.396;8.546;2023-06-26T05:02:29;24.90;99.90
18189;DHT22;9219;50.396;8.546;2023-06-26T05:04:56;25.00;99.90
18189;DHT22;9219;50.396;8.546;2023-06-26T05:07:23;24.90;99.90
18189;DHT22;9219;50.396;8.546;2023-06-26T05:09:50;24.90;99.90
18189;DHT22;9219;50.396;8.546;2023-06-26T05:12:17;25.00;99.90
18189;DHT22;9219;50.396;8.546;2023-06-26T05:14:44;25.10;99.90
18189;DHT22;9219;50.396;8.546;2023-06-26T05:17:14;25.00;99.90
18189;DHT22;9219;50.396;8.546;2023-06-26T05:19:44;25.00;99.90
18189;DHT22;9219;50.396;8.546;2023-06-26T05:27:20;25.20;99.90
18189;DHT22;9219;50.396;8.546;2023-06-26T05:29:48;25.30;99.90
18189;DHT22;9219;50.396;8.546;2023-06-26T05:32:16;25.60;99.90
18189;DHT22;9219;50.396;8.546;2023-06-26T05:34:45;25.60;99.90
18189;DHT22;9219;50.396;8.546;2023-06-26T05:37:15;25.60;99.90
18189;DHT22;9219;50.396;8.546;2023-06-26T05:39:45;25.50;99.90
18189;DHT22;9219;50.396;8.546;2023-06-26T05:42:13;25.70;99.90
18189;DHT22;9219;50.396;8.546;2023-06-26T05:49:45;25.70;99.90
18189;DHT22;9219;50.396;8.546;2023-06-26T05:52:13;25.70;99.90
18189;DHT22;9219;50.396;8.546;2023-06-26T05:54:41;25.70;99.90
18189;DHT22;9219;50.396;8.546;2023-06-26T05:57:09;25.90;99.90
18189;DHT22;9219;50.396;8.546;2023-06-26T05:59:40;26.20;99.90
18189;DHT22;9219;50.396;8.546;2023-06-26T06:02:08;26.30;99.90
18189;DHT22;9219;50.396;8.546;2023-06-26T06:04:35;26.40;99.90
18189;DHT22;9219;50.396;8.546;2023-06-26T06:10:03;26.20;99.90
18189;DHT22;9219;50.396;8.546;2023-06-26T06:12:31;26.30;99.90
18189;DHT22;9219;50.396;8.546;2023-06-26T06:14:58;26.40;99.90
18189;DHT22;9219;50.396;8.546;2023-06-26T06:17:26;26.30;99.90
18189;DHT22;9219;50.396;8.546;2023-06-26T06:19:53;26.50;99.90
18189;DHT22;9219;50.396;8.546;2023-06-26T06:22:20;26.50;99.90
18189;DHT22;9219;50.396;8.546;2023-06-26T06:24:48;26.60;99.90
18189;DHT22;9219;50.396;8.546;2023-06-26T06:35:14;26.70;99.90
18189;DHT22;9219;50.396;8.546;2023-06-26T06:37:42;26.70;99.90
18189;DHT22;9219;50.396;8.546;2023-06-26T06:40:10;26.50;99.90
18189;DHT22;9219;50.396;8.546;2023-06-26T06:42:38;26.50;99.90
18189;DHT22;9219;50.396;8.546;2023-06-26T06:45:06;26.40;99.90
18189;DHT22;9219;50.396;8.546;2023-06-26T06:47:33;26.50;99.90
18189;DHT22;9219;50.396;8.546;2023-06-26T06:50:01;26.50;99.90
18189;DHT22;9219;50.396;8.546;2023-06-26T06:52:37;26.50;99.90
18189;DHT22;9219;50.396;8.546;2023-06-26T06:55:53;26.50;99.90
18189;DHT22;9219;50.396;8.546;2023-06-26T06:58:21;26.40;99.90
18189;DHT22;9219;50.396;8.546;2023-06-26T07:00:49;26.10;99.90
18189;DHT22;9219;50.396;8.546;2023-06-26T07:03:18;26.10;99.90
18189;DHT22;9219;50.396;8.546;2023-06-26T07:05:45;26.10;99.90
18189;DHT22;9219;50.396;8.546;2023-06-26T07:08:12;26.20;99.90
18189;DHT22;9219;50.396;8.546;2023-06-26T07:10:39;26.10;99.90
18189;DHT22;9219;50.396;8.546;2023-06-26T07:13:09;25.60;99.90
18189;DHT22;9219;50.396;8.546;2023-06-26T07:20:56;25.40;99.90
18189;DHT22;9219;50.396;8.546;2023-06-26T07:23:24;25.30;99.90
18189;DHT22;9219;50.396;8.546;2023-06-26T07:25:51;25.30;99.90
18189;DHT22;9219;50.396;8.546;2023-06-26T07:28:19;25.40;99.90
18189;DHT22;9219;50.396;8.546;2023-06-26T07:30:46;25.50;99.90
18189;DHT22;9219;50.396;8.546;2023-06-26T07:33:16;25.40;99.90
18189;DHT22;9219;50.396;8.546;2023-06-26T07:35:43;25.00;99.90
18189;DHT22;9219;50.396;8.546;2023-06-26T07:38:12;25.00;99.90
18189;DHT22;9219;50.396;8.546;2023-06-26T07:45:45;25.20;99.90
18189;DHT22;9219;50.396;8.546;2023-06-26T07:48:12;25.30;99.90
18189;DHT22;9219;50.396;8.546;2023-06-26T07:50:39;25.30;99.90
18189;DHT22;9219;50.396;8.546;2023-06-26T07:53:08;25.10;99.90
18189;DHT22;9219;50.396;8.546;2023-06-26T07:55:35;25.20;99.90
18189;DHT22;9219;50.396;8.546;2023-06-26T07:58:03;25.10;99.90
18189;DHT22;9219;50.396;8.546;2023-06-26T08:00:30;25.10;99.90
18189;DHT22;9219;50.396;8.546;2023-06-26T08:06:13;24.50;99.90
18189;DHT22;9219;50.396;8.546;2023-06-26T08:08:41;24.10;99.90
18189;DHT22;9219;50.396;8.546;2023-06-26T08:11:09;24.10;99.90
18189;DHT22;9219;50.396;8.546;2023-06-26T08:13:36;24.30;99.90
18189;DHT22;9219;50.396;8.546;2023-06-26T08:16:03;24.70;99.90
18189;DHT22;9219;50.396;8.546;2023-06-26T08:18:31;24.90;99.90
18189;DHT22;9219;50.396;8.546;2023-06-26T08:20:58;25.10;99.90
18189;DHT22;9219;50.396;8.546;2023-06-26T08:26:21;25.20;99.90
18189;DHT22;9219;50.396;8.546;2023-06-26T08:28:48;25.10;99.90
18189;DHT22;9219;50.396;8.546;2023-06-26T08:31:16;25.40;99.90
18189;DHT22;9219;50.396;8.546;2023-06-26T08:33:44;25.20;99.90
18189;DHT22;9219;50.396;8.546;2023-06-26T08:36:11;25.50;99.90
18189;DHT22;9219;50.396;8.546;2023-06-26T08:38:38;25.80;99.90
18189;DHT22;9219;50.396;8.546;2023-06-26T08:41:06;25.60;99.90
18189;DHT22;9219;50.396;8.546;2023-06-26T08:46:20;25.40;99.90
18189;DHT22;9219;50.396;8.546;2023-06-26T08:48:55;25.00;99.90
18189;DHT22;9219;50.396;8.546;2023-06-26T08:51:25;24.70;99.90
18189;DHT22;9219;50.396;8.546;2023-06-26T08:53:57;24.80;99.90
18189;DHT22;9219;50.396;8.546;2023-06-26T08:56:27;24.70;99.90
18189;DHT22;9219;50.396;8.546;2023-06-26T08:58:55;24.60;99.90
18189;DHT22;9219;50.396;8.546;2023-06-26T09:01:24;24.70;99.90
18189;DHT22;9219;50.396;8.546;2023-06-26T09:08:57;24.90;99.90
18189;DHT22;9219;50.396;8.546;2023-06-26T09:11:25;24.60;99.90
18189;DHT22;9219;50.396;8.546;2023-06-26T09:13:52;24.60;99.90
18189;DHT22;9219;50.396;8.546;2023-06-26T09:16:24;25.00;99.90
18189;DHT22;9219;50.396;8.546;2023-06-26T09:18:53;25.40;99.90
18189;DHT22;9219;50.396;8.546;2023-06-26T09:21:22;25.50;99.90
18189;DHT22;9219;50.396;8.546;2023-06-26T09:23:49;25.60;99.90
18189;DHT22;9219;50.396;8.546;2023-06-26T09:26:19;25.90;99.90
18189;DHT22;9219;50.396;8.546;2023-06-26T09:29:10;25.80;99.90
18189;DHT22;9219;50.396;8.546;2023-06-26T09:31:37;25.30;99.90
18189;DHT22;9219;50.396;8.546;2023-06-26T09:34:08;25.20;99.90
18189;DHT22;9219;50.396;8.546;2023-06-26T09:36:36;25.40;99.90
18189;DHT22;9219;50.396;8.546;2023-06-26T09:39:08;25.60;99.90
18189;DHT22;9219;50.396;8.546;2023-06-26T09:41:37;25.80;99.90
18189;DHT22;9219;50.396;8.546;2023-06-26T09:44:06;25.40;99.90
18189;DHT22;9219;50.396;8.546;2023-06-26T09:49:43;24.90;99.90
18189;DHT22;9219;50.396;8.546;2023-06-26T09:52:14;25.00;99.90
18189;DHT22;9219;50.396;8.546;2023-06-26T09:54:43;25.00;99.90
18189;DHT22;9219;50.396;8.546;2023-06-26T09:57:12;25.20;99.90
18189;DHT22;9219;50.396;8.546;2023-06-26T09:59:41;25.40;99.90
18189;DHT22;9219;50.396;8.546;2023-06-26T10:02:08;25.20;99.90
18189;DHT22;9219;50.396;8.546;2023-06-26T10:04:38;25.30;99.90
18189;DHT22;9219;50.396;8.546;2023-06-26T10:15:13;25.80;99.90
18189;DHT22;9219;50.396;8.546;2023-06-26T10:17:44;26.00;99.90
18189;DHT22;9219;50.396;8.546;2023-06-26T10:20:14;25.90;99.90
18189;DHT22;9219;50.396;8.546;2023-06-26T10:22:45;25.90;99.90
18189;DHT22;9219;50.396;8.546;2023-06-26T10:25:16;25.90;99.90
18189;DHT22;9219;50.396;8.546;2023-06-26T10:27:49;25.70;99.90
18189;DHT22;9219;50.396;8.546;2023-06-26T10:30:22;25.40;99.90
18189;DHT22;9219;50.396;8.546;2023-06-26T10:38:01;25.20;99.90
18189;DHT22;9219;50.396;8.546;2023-06-26T10:40:40;25.30;99.90
18189;DHT22;9219;50.396;8.546;2023-06-26T10:43:10;25.30;99.90
18189;DHT22;9219;50.396;8.546;2023-06-26T10:45:44;25.30;99.90
18189;DHT22;9219;50.396;8.546;2023-06-26T10:48:14;25.70;99.90
18189;DHT22;9219;50.396;8.546;2023-06-26T10:50:42;25.80;99.90
18189;DHT22;9219;50.396;8.546;2023-06-26T10:53:16;25.60;99.90
18189;DHT22;9219;50.396;8.546;2023-06-26T11:01:15;25.80;99.90
18189;DHT22;9219;50.396;8.546;2023-06-26T11:03:45;26.00;99.90
18189;DHT22;9219;50.396;8.546;2023-06-26T11:06:14;26.00;99.90
18189;DHT22;9219;50.396;8.546;2023-06-26T11:08:46;26.00;99.90
18189;DHT22;9219;50.396;8.546;2023-06-26T11:11:14;25.90;99.90
18189;DHT22;9219;50.396;8.546;2023-06-26T11:13:44;25.90;99.90
18189;DHT22;9219;50.396;8.546;2023-06-26T11:16:13;25.80;99.90
18189;DHT22;9219;50.396;8.546;2023-06-26T11:22:24;25.90;99.90
18189;DHT22;9219;50.396;8.546;2023-06-26T11:24:54;26.00;99.90
18189;DHT22;9219;50.396;8.546;2023-06-26T11:27:22;25.90;99.90
18189;DHT22;9219;50.396;8.546;2023-06-26T11:29:50;25.40;99.90
18189;DHT22;9219;50.396;8.546;2023-06-26T11:32:19;25.30;99.90
18189;DHT22;9219;50.396;8.546;2023-06-26T11:34:48;25.50;99.90
18189;DHT22;9219;50.396;8.546;2023-06-26T11:37:16;25.50;99.90
18189;DHT22;9219;50.396;8.546;2023-06-26T11:43:35;24.80;99.90
18189;DHT22;9219;50.396;8.546;2023-06-26T11:46:03;24.40;99.90
18189;DHT22;9219;50.396;8.546;2023-06-26T11:48:31;24.60;99.90
18189;DHT22;9219;50.396;8.546;2023-06-26T11:50:59;25.10;99.90
18189;DHT22;9219;50.396;8.546;2023-06-26T11:53:27;25.30;99.90
18189;DHT22;9219;50.396;8.546;2023-06-26T11:55:55;25.50;99.90
18189;DHT22;9219;50.396;8.546;2023-06-26T11:58:23;25.20;99.90
18189;DHT22;9219;50.396;8.546;2023-06-26T12:00:52;25.40;99.90
18189;DHT22;9219;50.396;8.546;2023-06-26T12:08:39;25.70;99.90
18189;DHT22;9219;50.396;8.546;2023-06-26T12:11:08;26.00;99.90
18189;DHT22;9219;50.396;8.546;2023-06-26T12:13:36;25.60;99.90
18189;DHT22;9219;50.396;8.546;2023-06-26T12:16:04;25.10;99.90
18189;DHT22;9219;50.396;8.546;2023-06-26T12:18:34;25.30;99.90
18189;DHT22;9219;50.396;8.546;2023-06-26T12:21:02;25.30;99.90
18189;DHT22;9219;50.396;8.546;2023-06-26T12:23:33;25.10;99.90
18189;DHT22;9219;50.396;8.546;2023-06-26T12:29:52;24.90;99.90
18189;DHT22;9219;50.396;8.546;2023-06-26T12:32:21;25.10;99.90
18189;DHT22;9219;50.396;8.546;2023-06-26T12:34:50;25.00;99.90
18189;DHT22;9219;50.396;8.546;2023-06-26T12:37:20;25.10;99.90
18189;DHT22;9219;50.396;8.546;2023-06-26T12:39:50;25.40;99.90
18189;DHT22;9219;50.396;8.546;2023-06-26T12:42:18;25.30;99.90
18189;DHT22;9219;50.396;8.546;2023-06-26T12:44:47;25.60;99.90
18189;DHT22;9219;50.396;8.546;2023-06-26T12:47:17;25.40;99.90
18189;DHT22;9219;50.396;8.546;2023-06-26T12:55:00;25.40;99.90
18189;DHT22;9219;50.396;8.546;2023-06-26T12:57:28;24.90;99.90
18189;DHT22;9219;50.396;8.546;2023-06-26T12:59:55;24.90;99.90
18189;DHT22;9219;50.396;8.546;2023-06-26T13:02:23;24.80;99.90
18189;DHT22;9219;50.396;8.546;2023-06-26T13:04:51;24.80;99.90
18189;DHT22;9219;50.396;8.546;2023-06-26T13:07:19;24.50;99.90
18189;DHT22;9219;50.396;8.546;2023-06-26T13:09:47;24.60;99.90
18189;DHT22;9219;50.396;8.546;2023-06-26T13:14:56;24.80;99.90
18189;DHT22;9219;50.396;8.546;2023-06-26T13:17:24;24.70;99.90
18189;DHT22;9219;50.396;8.546;2023-06-26T13:19:51;24.50;99.90
18189;DHT22;9219;50.396;8.546;2023-06-26T13:22:19;24.60;99.90
18189;DHT22;9219;50.396;8.546;2023-06-26T13:24:47;24.60;99.90
18189;DHT22;9219;50.396;8.546;2023-06-26T13:27:14;24.70;99.90
18189;DHT22;9219;50.396;8.546;2023-06-26T13:29:42;24.60;99.90
18189;DHT22;9219;50.396;8.546;2023-06-26T13:35:09;24.50;99.90
18189;DHT22;9219;50.396;8.546;2023-06-26T13:37:37;24.50;99.90
18189;DHT22;9219;50.396;8.546;2023-06-26T13:40:05;24.70;99.90
18189;DHT22;9219;50.396;8.546;2023-06-26T13:42:36;24.80;99.90
18189;DHT22;9219;50.396;8.546;2023-06-26T13:45:07;24.70;99.90
18189;DHT22;9219;50.396;8.546;2023-06-26T13:47:56;24.40;99.90
18189;DHT22;9219;50.396;8.546;2023-06-26T13:50:24;24.40;99.90
18189;DHT22;9219;50.396;8.546;2023-06-26T13:57:57;24.50;99.90
18189;DHT22;9219;50.396;8.546;2023-06-26T14:00:25;23.90;99.90
18189;DHT22;9219;50.396;8.546;2023-06-26T14:02:53;23.60;99.90
18189;DHT22;9219;50.396;8.546;2023-06-26T14:05:23;23.70;99.90
18189;DHT22;9219;50.396;8.546;2023-06-26T14:08:03;23.90;99.90
18189;DHT22;9219;50.396;8.546;2023-06-26T14:10:31;24.10;99.90
18189;DHT22;9219;50.396;8.546;2023-06-26T14:13:01;24.10;99.90
18189;DHT22;9219;50.396;8.546;2023-06-26T14:20:34;23.80;99.90
18189;DHT22;9219;50.396;8.546;2023-06-26T14:23:04;24.00;99.90
18189;DHT22;9219;50.396;8.546;2023-06-26T14:25:32;24.10;99.90
18189;DHT22;9219;50.396;8.546;2023-06-26T14:27:59;24.00;99.90
18189;DHT22;9219;50.396;8.546;2023-06-26T14:30:27;24.10;99.90
18189;DHT22;9219;50.396;8.546;2023-06-26T14:32:54;24.10;99.90
18189;DHT22;9219;50.396;8.546;2023-06-26T14:35:22;23.90;99.90
18189;DHT22;9219;50.396;8.546;2023-06-26T14:45:49;23.50;99.90
18189;DHT22;9219;50.396;8.546;2023-06-26T14:48:20;23.60;99.90
18189;DHT22;9219;50.396;8.546;2023-06-26T14:50:49;23.70;99.90
18189;DHT22;9219;50.396;8.546;2023-06-26T14:53:17;23.90;99.90
18189;DHT22;9219;50.396;8.546;2023-06-26T14:55:45;24.00;99.90
18189;DHT22;9219;50.396;8.546;2023-06-26T14:58:12;23.80;99.90
18189;DHT22;9219;50.396;8.546;2023-06-26T15:00:40;23.60;99.90
18189;DHT22;9219;50.396;8.546;2023-06-26T15:05:48;23.60;99.90
18189;DHT22;9219;50.396;8.546;2023-06-26T15:08:15;23.90;99.90
18189;DHT22;9219;50.396;8.546;2023-06-26T15:10:43;23.70;99.90
18189;DHT22;9219;50.396;8.546;2023-06-26T15:13:11;23.80;99.90
18189;DHT22;9219;50.396;8.546;2023-06-26T15:15:38;23.80;99.90
18189;DHT22;9219;50.396;8.546;2023-06-26T15:18:06;23.90;99.90
18189;DHT22;9219;50.396;8.546;2023-06-26T15:20:33;23.60;99.90
18189;DHT22;9219;50.396;8.546;2023-06-26T15:26:17;23.50;99.90
18189;DHT22;9219;50.396;8.546;2023-06-26T15:28:44;23.30;99.90
18189;DHT22;9219;50.396;8.546;2023-06-26T15:31:12;23.40;99.90
18189;DHT22;9219;50.396;8.546;2023-06-26T15:33:39;23.40;99.90
18189;DHT22;9219;50.396;8.546;2023-06-26T15:36:07;23.40;99.90
18189;DHT22;9219;50.396;8.546;2023-06-26T15:38:34;23.50;99.90
18189;DHT22;9219;50.396;8.546;2023-06-26T15:41:01;23.70;99.90
18189;DHT22;9219;50.396;8.546;2023-06-26T15:46:44;23.80;99.90
18189;DHT22;9219;50.396;8.546;2023-06-26T15:49:13;23.80;99.90
18189;DHT22;9219;50.396;8.546;2023-06-26T15:51:41;23.80;99.90
18189;DHT22;9219;50.396;8.546;2023-06-26T15:54:11;23.70;99.90
18189;DHT22;9219;50.396;8.546;2023-06-26T15:56:39;23.90;99.90
18189;DHT22;9219;50.396;8.546;2023-06-26T15:59:07;23.70;99.90
18189;DHT22;9219;50.396;8.546;2023-06-26T16:01:34;23.60;99.90
18189;DHT22;9219;50.396;8.546;2023-06-26T16:07:42;23.50;99.90
18189;DHT22;9219;50.396;8.546;2023-06-26T16:10:24;23.30;99.90
18189;DHT22;9219;50.396;8.546;2023-06-26T16:12:53;22.80;99.90
18189;DHT22;9219;50.396;8.546;2023-06-26T16:15:22;22.80;99.90
18189;DHT22;9219;50.396;8.546;2023-06-26T16:17:50;22.90;99.90
18189;DHT22;9219;50.396;8.546;2023-06-26T16:20:18;22.90;99.90
18189;DHT22;9219;50.396;8.546;2023-06-26T16:22:50;22.70;99.90
18189;DHT22;9219;50.396;8.546;2023-06-26T16:30:22;22.70;99.90
18189;DHT22;9219;50.396;8.546;2023-06-26T16:32:50;22.50;99.90
18189;DHT22;9219;50.396;8.546;2023-06-26T16:35:20;22.60;99.90
18189;DHT22;9219;50.396;8.546;2023-06-26T16:37:49;22.80;99.90
18189;DHT22;9219;50.396;8.546;2023-06-26T16:40:18;22.50;99.90
18189;DHT22;9219;50.396;8.546;2023-06-26T16:42:48;22.40;99.90
18189;DHT22;9219;50.396;8.546;2023-06-26T16:45:18;22.40;99.90
18189;DHT22;9219;50.396;8.546;2023-06-26T16:54:09;22.20;99.90
18189;DHT22;9219;50.396;8.546;2023-06-26T16:56:38;22.00;99.90
18189;DHT22;9219;50.396;8.546;2023-06-26T16:59:07;22.00;99.90
18189;DHT22;9219;50.396;8.546;2023-06-26T17:01:35;22.00;99.90
18189;DHT22;9219;50.396;8.546;2023-06-26T17:04:06;22.00;99.90
18189;DHT22;9219;50.396;8.546;2023-06-26T17:06:34;22.00;99.90
18189;DHT22;9219;50.396;8.546;2023-06-26T17:09:02;21.90;99.90
18189;DHT22;9219;50.396;8.546;2023-06-26T17:11:31;21.70;99.90
18189;DHT22;9219;50.396;8.546;2023-06-26T17:15:22;21.70;99.90
18189;DHT22;9219;50.396;8.546;2023-06-26T17:17:52;21.50;99.90
18189;DHT22;9219;50.396;8.546;2023-06-26T17:20:19;21.50;99.90
18189;DHT22;9219;50.396;8.546;2023-06-26T17:22:47;21.50;99.90
18189;DHT22;9219;50.396;8.546;2023-06-26T17:25:15;21.50;99.90
18189;DHT22;9219;50.396;8.546;2023-06-26T17:27:43;21.40;99.90
18189;DHT22;9219;50.396;8.546;2023-06-26T17:30:11;21.30;99.90
18189;DHT22;9219;50.396;8.546;2023-06-26T17:38:58;21.40;99.90
18189;DHT22;9219;50.396;8.546;2023-06-26T17:41:27;21.30;99.90
18189;DHT22;9219;50.396;8.546;2023-06-26T17:43:57;21.30;99.90
18189;DHT22;9219;50.396;8.546;2023-06-26T17:46:26;21.10;99.90
18189;DHT22;9219;50.396;8.546;2023-06-26T17:48:53;20.80;99.90
18189;DHT22;9219;50.396;8.546;2023-06-26T17:51:22;20.80;99.90
18189;DHT22;9219;50.396;8.546;2023-06-26T17:53:53;20.80;99.90
18189;DHT22;9219;50.396;8.546;2023-06-26T17:59:01;20.80;99.90
18189;DHT22;9219;50.396;8.546;2023-06-26T18:01:30;20.90;99.90
18189;DHT22;9219;50.396;8.546;2023-06-26T18:03:59;20.90;99.90
18189;DHT22;9219;50.396;8.546;2023-06-26T18:06:29;20.90;99.90
18189;DHT22;9219;50.396;8.546;2023-06-26T18:09:00;20.70;99.90
18189;DHT22;9219;50.396;8.546;2023-06-26T18:11:32;20.50;99.90
18189;DHT22;9219;50.396;8.546;2023-06-26T18:14:06;20.50;99.90
18189;DHT22;9219;50.396;8.546;2023-06-26T18:21:37;20.20;99.90
18189;DHT22;9219;50.396;8.546;2023-06-26T18:24:08;20.10;99.90
18189;DHT22;9219;50.396;8.546;2023-06-26T18:26:35;20.10;99.90
18189;DHT22;9219;50.396;8.546;2023-06-26T18:29:03;20.20;99.90
18189;DHT22;9219;50.396;8.546;2023-06-26T18:31:31;20.20;99.90
18189;DHT22;9219;50.396;8.546;2023-06-26T18:34:00;20.30;99.90
18189;DHT22;9219;50.396;8.546;2023-06-26T18:36:30;20.20;99.90
18189;DHT22;9219;50.396;8.546;2023-06-26T18:45:33;20.10;99.90
18189;DHT22;9219;50.396;8.546;2023-06-26T18:48:02;20.10;99.90
18189;DHT22;9219;50.396;8.546;2023-06-26T18:50:31;20.10;99.90
18189;DHT22;9219;50.396;8.546;2023-06-26T18:52:59;20.20;99.90
18189;DHT22;9219;50.396;8.546;2023-06-26T18:55:28;20.30;99.90
18189;DHT22;9219;50.396;8.546;2023-06-26T18:57:59;20.30;99.90
18189;DHT22;9219;50.396;8.546;2023-06-26T19:00:27;20.30;99.90
18189;DHT22;9219;50.396;8.546;2023-06-26T19:06:31;20.10;99.90
18189;DHT22;9219;50.396;8.546;2023-06-26T19:09:01;20.10;99.90
18189;DHT22;9219;50.396;8.546;2023-06-26T19:11:29;20.00;99.90
18189;DHT22;9219;50.396;8.546;2023-06-26T19:13:57;20.00;99.90
18189;DHT22;9219;50.396;8.546;2023-06-26T19:16:27;20.10;99.90
18189;DHT22;9219;50.396;8.546;2023-06-26T19:18:55;20.10;99.90
18189;DHT22;9219;50.396;8.546;2023-06-26T19:21:26;20.10;99.90
18189;DHT22;9219;50.396;8.546;2023-06-26T19:27:29;19.80;99.90
18189;DHT22;9219;50.396;8.546;2023-06-26T19:29:59;19.70;99.90
18189;DHT22;9219;50.396;8.546;2023-06-26T19:32:28;19.60;99.90
18189;DHT22;9219;50.396;8.546;2023-06-26T19:34:56;19.50;99.90
18189;DHT22;9219;50.396;8.546;2023-06-26T19:37:24;19.40;99.90
18189;DHT22;9219;50.396;8.546;2023-06-26T19:39:54;19.60;99.90
18189;DHT22;9219;50.396;8.546;2023-06-26T19:42:23;19.60;99.90
18189;DHT22;9219;50.396;8.546;2023-06-26T19:44:52;19.60;99.90
18189;DHT22;9219;50.396;8.546;2023-06-26T19:52:26;19.60;99.90